Time;durP1;ratioP1;P1;durP2;ratioP2;P2;SDS_P1;SDS_P2;PMS_P1;PMS_P2;Temp;Humidity;BMP_temperature;BMP_pressure;BME280_temperature;BME280_humidity;BME280_pressure;Samples;Min_cycle;Max_cycle;Signal;HPM_P1;HPM_P2
2023/08/05 00:00:57;;;;;;;13.10;3.80;;;15.80;99.90;;;;;;5114466;28;20039;-58
2023/08/05 00:03:23;;;;;;;5.47;3.38;;;15.70;99.90;;;;;;5114768;28;20047;-57
2023/08/05 00:05:49;;;;;;;12.85;3.83;;;15.80;99.90;;;;;;5114341;28;20047;-58
2023/08/05 00:08:14;;;;;;;8.68;3.70;;;15.70;99.90;;;;;;5114902;28;20043;-57
2023/08/05 00:10:47;;;;;;;8.35;3.83;;;15.70;99.90;;;;;;5114171;28;20051;-58
2023/08/05 00:13:13;;;;;;;8.95;4.13;;;15.70;99.90;;;;;;5114235;28;20028;-58
2023/08/05 00:15:39;;;;;;;9.13;4.65;;;15.70;99.90;;;;;;5114057;28;20119;-58
2023/08/05 00:18:05;;;;;;;10.05;3.72;;;15.60;99.90;;;;;;5114151;28;20043;-58
2023/08/05 00:20:31;;;;;;;8.10;4.00;;;15.60;99.90;;;;;;5114542;28;20765;-58
2023/08/05 00:22:56;;;;;;;9.07;4.97;;;15.60;99.90;;;;;;5114174;28;20036;-58
2023/08/05 00:25:22;;;;;;;13.95;3.90;;;15.50;99.90;;;;;;5114262;28;20039;-58
2023/08/05 00:27:48;;;;;;;10.30;4.75;;;15.50;99.90;;;;;;5113867;28;20028;-59
2023/08/05 00:30:13;;;;;;;6.10;3.75;;;15.50;99.90;;;;;;5113577;28;20378;-59
2023/08/05 00:32:39;;;;;;;9.20;4.00;;;15.40;99.90;;;;;;5112541;28;20434;-59
2023/08/05 00:35:06;;;;;;;7.72;4.30;;;15.40;99.90;;;;;;5113406;28;20038;-59
2023/08/05 00:37:33;;;;;;;10.35;4.65;;;15.40;99.90;;;;;;5113572;28;20043;-57
2023/08/05 00:39:59;;;;;;;7.15;4.13;;;15.40;99.90;;;;;;5113770;28;20043;-58
2023/08/05 00:42:28;;;;;;;10.98;4.68;;;15.40;99.90;;;;;;5112072;28;20131;-58
2023/08/05 00:44:54;;;;;;;9.63;3.97;;;15.40;99.90;;;;;;5113366;28;20045;-58
2023/08/05 00:47:20;;;;;;;7.38;3.90;;;15.40;99.90;;;;;;5113419;28;20043;-58
2023/08/05 00:49:49;;;;;;;7.15;4.40;;;15.40;99.90;;;;;;5113165;28;20377;-58
2023/08/05 00:52:17;;;;;;;12.90;4.28;;;15.30;99.90;;;;;;5113352;28;20028;-58
2023/08/05 00:54:43;;;;;;;8.27;3.75;;;15.40;99.90;;;;;;5113391;28;20039;-58
2023/08/05 00:57:13;;;;;;;4.78;3.63;;;15.40;99.90;;;;;;5113263;28;20063;-58
2023/08/05 00:59:39;;;;;;;7.57;4.35;;;15.40;99.90;;;;;;5113117;28;20101;-57
2023/08/05 01:02:06;;;;;;;8.77;4.45;;;15.40;99.90;;;;;;5113405;28;20036;-57
2023/08/05 01:04:32;;;;;;;6.45;4.13;;;15.40;99.90;;;;;;5113148;28;20119;-57
2023/08/05 01:06:59;;;;;;;9.10;3.85;;;15.40;99.90;;;;;;5113138;28;20032;-57
2023/08/05 01:09:25;;;;;;;13.63;4.43;;;15.40;99.90;;;;;;5113221;28;20047;-58
2023/08/05 01:11:51;;;;;;;6.25;3.17;;;15.40;99.90;;;;;;5112668;28;20527;-58
2023/08/05 01:14:17;;;;;;;6.97;3.72;;;15.40;99.90;;;;;;5112956;28;20024;-58
2023/08/05 01:16:43;;;;;;;5.97;3.75;;;15.30;99.90;;;;;;5112859;28;20398;-57
2023/08/05 01:19:17;;;;;;;9.95;4.13;;;15.40;99.90;;;;;;5112810;28;20039;-57
2023/08/05 01:22:15;;;;;;;7.55;4.07;;;15.30;99.90;;;;;;5113010;28;20047;-57
2023/08/05 01:25:05;;;;;;;5.97;3.95;;;15.30;99.90;;;;;;5090092;28;20050;-57
2023/08/05 01:27:33;;;;;;;11.57;4.20;;;15.30;99.90;;;;;;5090194;28;20070;-57
2023/08/05 01:29:58;;;;;;;6.75;3.20;;;15.20;99.90;;;;;;5090075;28;20135;-58
2023/08/05 01:32:25;;;;;;;6.57;4.13;;;15.20;99.90;;;;;;5089922;28;20110;-58
2023/08/05 01:34:52;;;;;;;5.68;3.90;;;15.10;99.90;;;;;;5090052;28;20051;-57
2023/08/05 01:37:17;;;;;;;9.43;4.07;;;15.10;99.90;;;;;;5089788;28;20536;-59
2023/08/05 01:39:43;;;;;;;8.45;4.53;;;15.00;99.90;;;;;;5080935;28;20044;-58
2023/08/05 01:42:09;;;;;;;9.80;3.58;;;15.00;99.90;;;;;;5089365;28;20523;-59
2023/08/05 01:44:34;;;;;;;9.48;4.30;;;15.00;99.90;;;;;;5089584;28;20050;-59
2023/08/05 01:47:00;;;;;;;9.73;4.00;;;14.90;99.90;;;;;;5089792;28;20047;-59
2023/08/05 01:49:26;;;;;;;6.15;3.45;;;14.90;99.90;;;;;;5089649;28;20059;-58
2023/08/05 01:51:51;;;;;;;5.53;3.92;;;14.80;99.90;;;;;;5089822;28;20101;-59
2023/08/05 01:54:17;;;;;;;7.13;3.95;;;14.80;99.90;;;;;;5089691;28;20056;-59
2023/08/05 01:56:42;;;;;;;6.45;3.55;;;14.70;99.90;;;;;;5089580;28;20040;-58
2023/08/05 01:59:08;;;;;;;7.68;3.80;;;14.70;99.90;;;;;;5089632;28;20043;-58
2023/08/05 02:01:45;;;;;;;8.52;3.95;;;14.60;99.90;;;;;;5102462;28;20087;-58
2023/08/05 02:04:11;;;;;;;7.93;4.15;;;14.60;99.90;;;;;;5111971;28;20048;-58
2023/08/05 02:06:37;;;;;;;14.43;4.15;;;14.50;99.90;;;;;;5111853;28;20393;-59
2023/08/05 02:09:03;;;;;;;11.95;3.80;;;14.40;99.90;;;;;;5111998;28;20043;-59
2023/08/05 02:11:28;;;;;;;6.40;3.95;;;14.40;99.90;;;;;;5112209;28;20096;-59
2023/08/05 02:13:54;;;;;;;9.50;4.07;;;14.30;99.90;;;;;;5112242;28;20082;-59
2023/08/05 02:16:20;;;;;;;29.83;4.82;;;14.30;99.90;;;;;;5112054;28;20615;-59
2023/08/05 02:18:45;;;;;;;10.82;4.07;;;14.20;99.90;;;;;;5083505;28;20470;-59
2023/08/05 02:21:11;;;;;;;8.50;3.70;;;14.20;99.90;;;;;;5111889;28;20040;-58
2023/08/05 02:23:37;;;;;;;7.93;4.00;;;14.20;99.90;;;;;;5111978;28;20123;-58
2023/08/05 02:26:03;;;;;;;18.98;4.60;;;14.20;99.90;;;;;;5112079;28;20047;-58
2023/08/05 02:28:29;;;;;;;12.70;4.40;;;14.10;99.90;;;;;;5111887;28;20036;-58
2023/08/05 02:30:54;;;;;;;12.13;3.90;;;14.10;99.90;;;;;;5112019;28;20108;-58
2023/08/05 02:33:20;;;;;;;8.40;3.88;;;14.00;99.90;;;;;;5112063;28;20047;-58
2023/08/05 02:35:46;;;;;;;7.05;4.10;;;14.10;99.90;;;;;;5111596;28;20043;-58
2023/08/05 02:38:12;;;;;;;6.03;3.83;;;14.10;99.90;;;;;;5112025;28;20043;-58
2023/08/05 02:40:38;;;;;;;8.85;3.80;;;14.00;99.90;;;;;;5111635;28;20060;-58
2023/08/05 02:43:03;;;;;;;7.60;4.18;;;14.00;99.90;;;;;;5111774;28;20112;-58
2023/08/05 02:45:29;;;;;;;10.52;5.07;;;14.00;99.90;;;;;;5111657;28;20047;-58
2023/08/05 02:47:55;;;;;;;11.13;3.90;;;13.90;99.90;;;;;;5111614;28;20039;-58
2023/08/05 02:50:20;;;;;;;8.55;3.40;;;14.00;99.90;;;;;;5111382;28;20040;-58
2023/08/05 02:52:46;;;;;;;23.70;3.92;;;14.00;99.90;;;;;;5112137;28;20039;-59
2023/08/05 02:55:11;;;;;;;7.85;3.42;;;13.90;99.90;;;;;;5113662;28;20049;-59
2023/08/05 02:57:37;;;;;;;7.32;3.88;;;13.80;99.90;;;;;;5115596;28;20044;-58
2023/08/05 03:00:04;;;;;;;6.10;3.80;;;13.90;99.90;;;;;;5115563;28;20043;-59
2023/08/05 03:02:29;;;;;;;10.07;3.60;;;13.90;99.90;;;;;;5114319;28;20124;-59
2023/08/05 03:04:55;;;;;;;9.35;4.40;;;13.90;99.90;;;;;;5115333;28;20499;-58
2023/08/05 03:07:21;;;;;;;11.05;5.70;;;13.90;99.90;;;;;;5115078;28;20078;-58
2023/08/05 03:09:47;;;;;;;7.63;6.82;;;13.80;99.90;;;;;;5114247;28;20040;-58
2023/08/05 03:12:13;;;;;;;10.63;6.80;;;13.80;99.90;;;;;;5115371;28;20038;-59
2023/08/05 03:14:38;;;;;;;16.65;7.05;;;13.80;99.90;;;;;;5115266;28;20032;-60
2023/08/05 03:17:04;;;;;;;9.82;6.18;;;13.90;99.90;;;;;;5115144;28;20114;-58
2023/08/05 03:19:30;;;;;;;16.45;6.57;;;13.90;99.90;;;;;;5115052;28;20104;-58
2023/08/05 03:21:55;;;;;;;12.65;6.32;;;14.00;99.90;;;;;;5115028;28;20481;-59
2023/08/05 03:24:21;;;;;;;9.95;7.13;;;14.10;99.90;;;;;;5115095;28;20031;-58
2023/08/05 03:26:46;;;;;;;7.30;5.05;;;14.20;99.90;;;;;;5114954;28;20035;-60
2023/08/05 03:29:12;;;;;;;8.57;5.00;;;14.20;99.90;;;;;;5115294;28;20043;-58
2023/08/05 03:31:37;;;;;;;7.20;3.78;;;14.20;99.90;;;;;;5114953;28;20043;-59
2023/08/05 03:34:03;;;;;;;6.15;4.20;;;14.20;99.90;;;;;;5114959;28;20147;-59
2023/08/05 03:36:30;;;;;;;8.82;4.35;;;14.10;99.90;;;;;;5115158;28;20047;-59
2023/08/05 03:38:56;;;;;;;7.88;5.30;;;14.20;99.90;;;;;;5114969;28;20081;-59
2023/08/05 03:41:22;;;;;;;6.13;4.28;;;14.20;99.90;;;;;;5114583;28;20051;-58
2023/08/05 03:43:48;;;;;;;7.32;4.60;;;14.10;99.90;;;;;;5114760;27;20501;-57
2023/08/05 03:46:13;;;;;;;7.78;4.50;;;14.10;99.90;;;;;;5114695;28;20552;-57
2023/08/05 03:48:39;;;;;;;8.40;4.28;;;14.10;99.90;;;;;;5113435;28;20500;-57
2023/08/05 03:51:05;;;;;;;6.35;4.80;;;14.10;99.90;;;;;;5114573;28;20444;-58
2023/08/05 03:53:30;;;;;;;9.73;4.65;;;14.10;99.90;;;;;;5114574;28;20063;-59
2023/08/05 03:55:56;;;;;;;11.63;5.03;;;14.10;99.90;;;;;;5114499;28;20127;-59
2023/08/05 03:58:23;;;;;;;12.45;5.00;;;14.10;99.90;;;;;;5114453;28;20066;-59
2023/08/05 04:00:49;;;;;;;10.85;5.20;;;14.10;99.90;;;;;;5114293;28;20052;-58
2023/08/05 04:03:15;;;;;;;10.60;5.10;;;14.10;99.90;;;;;;5114256;28;20047;-58
2023/08/05 04:05:40;;;;;;;8.27;4.40;;;14.00;99.90;;;;;;5113969;28;20039;-57
2023/08/05 04:08:06;;;;;;;13.75;5.40;;;14.10;99.90;;;;;;5114542;28;20456;-58
2023/08/05 04:10:34;;;;;;;8.70;5.00;;;14.10;99.90;;;;;;5114163;28;20044;-58
2023/08/05 04:13:01;;;;;;;11.18;5.25;;;14.10;99.90;;;;;;5114222;27;20107;-58
2023/08/05 04:15:28;;;;;;;12.68;5.80;;;14.10;99.90;;;;;;5112651;28;20402;-58
2023/08/05 04:17:59;;;;;;;14.25;4.97;;;14.10;99.90;;;;;;5114469;27;20114;-56
2023/08/05 04:20:25;;;;;;;12.60;6.05;;;14.10;99.90;;;;;;5114125;28;20036;-57
2023/08/05 04:22:50;;;;;;;14.65;8.60;;;14.10;99.90;;;;;;5114201;28;20496;-58
2023/08/05 04:25:16;;;;;;;14.43;10.80;;;14.00;99.90;;;;;;5114118;28;20107;-57
2023/08/05 04:27:42;;;;;;;17.77;9.32;;;14.10;99.90;;;;;;5113684;28;20031;-58
2023/08/05 04:30:08;;;;;;;11.98;6.88;;;14.10;99.90;;;;;;5112751;27;20055;-59
2023/08/05 04:32:34;;;;;;;13.27;8.20;;;14.10;99.90;;;;;;5113636;28;20084;-58
2023/08/05 04:34:59;;;;;;;11.40;6.32;;;14.10;99.90;;;;;;5114012;28;20043;-58
2023/08/05 04:37:25;;;;;;;10.73;6.05;;;14.20;99.90;;;;;;5114157;28;20095;-58
2023/08/05 04:39:50;;;;;;;13.45;5.80;;;14.20;99.90;;;;;;5113826;28;20039;-57
2023/08/05 04:42:17;;;;;;;9.27;5.70;;;14.20;99.90;;;;;;5113422;28;20063;-57
2023/08/05 04:44:43;;;;;;;7.57;4.85;;;14.40;99.90;;;;;;5113290;28;20487;-57
2023/08/05 04:47:12;;;;;;;10.10;4.50;;;14.40;99.90;;;;;;5113427;28;20038;-57
2023/08/05 04:49:40;;;;;;;;;;;14.50;99.90;;;;;;5114169;28;20092;-58
2023/08/05 04:52:06;;;;;;;10.77;5.07;;;14.50;99.90;;;;;;5113408;28;19920;-57
2023/08/05 04:54:39;;;;;;;9.95;3.97;;;14.40;99.90;;;;;;5112234;28;20035;-58
2023/08/05 04:57:05;;;;;;;7.50;3.97;;;14.40;99.90;;;;;;5113207;28;20500;-58
2023/08/05 04:59:32;;;;;;;7.65;3.95;;;14.50;99.90;;;;;;5113452;28;20120;-57
2023/08/05 05:01:57;;;;;;;11.30;3.60;;;14.50;99.90;;;;;;5113288;28;20039;-56
2023/08/05 05:04:23;;;;;;;6.80;3.67;;;14.60;99.90;;;;;;5113498;28;20393;-57
2023/08/05 05:06:49;;;;;;;8.65;4.43;;;14.60;99.90;;;;;;5113637;28;20471;-58
2023/08/05 05:09:14;;;;;;;13.20;3.90;;;14.70;99.90;;;;;;5084797;28;20405;-57
2023/08/05 05:11:40;;;;;;;9.68;4.43;;;14.70;99.90;;;;;;5113068;28;20031;-57
2023/08/05 05:14:06;;;;;;;9.40;3.97;;;14.70;99.90;;;;;;5111754;28;20505;-57
2023/08/05 05:16:32;;;;;;;6.88;4.07;;;14.70;99.90;;;;;;5113099;28;20042;-57
2023/08/05 05:18:57;;;;;;;11.30;4.45;;;14.80;99.90;;;;;;5112143;28;20114;-57
2023/08/05 05:21:23;;;;;;;8.68;4.00;;;14.80;99.90;;;;;;5112012;28;20043;-57
2023/08/05 05:23:49;;;;;;;5.53;3.67;;;14.80;99.90;;;;;;5113261;28;20031;-58
2023/08/05 05:26:14;;;;;;;9.18;3.80;;;14.90;99.90;;;;;;5112916;28;20028;-56
2023/08/05 05:28:40;;;;;;;11.38;3.67;;;14.80;99.90;;;;;;5112934;28;20432;-57
2023/08/05 05:31:05;;;;;;;8.05;4.07;;;14.90;99.90;;;;;;5112643;28;20035;-57
2023/08/05 05:33:31;;;;;;;10.68;3.72;;;15.00;99.90;;;;;;5108058;28;20036;-57
2023/08/05 05:35:57;;;;;;;7.47;4.03;;;15.10;99.90;;;;;;5112720;27;20039;-57
2023/08/05 05:38:22;;;;;;;10.73;4.15;;;15.20;99.90;;;;;;5112977;28;20481;-57
2023/08/05 05:40:48;;;;;;;5.70;3.80;;;15.30;99.90;;;;;;5112482;28;20056;-56
2023/08/05 05:43:13;;;;;;;9.18;3.67;;;15.40;99.90;;;;;;5112624;28;20126;-57
2023/08/05 05:45:42;;;;;;;6.85;3.22;;;15.50;99.90;;;;;;5113154;28;20043;-57
2023/08/05 05:48:08;;;;;;;7.00;4.05;;;15.60;99.90;;;;;;5112519;28;20523;-56
2023/08/05 05:50:37;;;;;;;11.13;3.58;;;15.70;99.90;;;;;;5105317;28;20032;-58
2023/08/05 05:53:03;;;;;;;8.20;3.25;;;15.70;99.90;;;;;;5112457;28;20035;-58
2023/08/05 05:55:28;;;;;;;7.75;3.92;;;15.80;99.90;;;;;;5105985;28;20036;-59
2023/08/05 05:57:54;;;;;;;9.07;3.42;;;15.80;99.90;;;;;;5111514;28;20090;-58
2023/08/05 06:00:20;;;;;;;8.90;3.70;;;15.90;99.90;;;;;;5112565;28;20035;-58
2023/08/05 06:02:45;;;;;;;4.05;3.00;;;15.90;99.90;;;;;;5111197;28;20500;-58
2023/08/05 06:05:12;;;;;;;9.68;3.30;;;16.00;99.90;;;;;;5112268;28;20122;-58
2023/08/05 06:07:37;;;;;;;7.70;3.50;;;16.10;99.90;;;;;;5112136;28;20568;-58
2023/08/05 06:10:03;;;;;;;4.57;2.85;;;16.10;99.90;;;;;;5112057;28;20114;-58
2023/08/05 06:12:32;;;;;;;6.30;2.67;;;16.30;99.90;;;;;;5112046;28;20036;-58
2023/08/05 06:15:00;;;;;;;6.15;2.92;;;16.40;99.90;;;;;;5111061;28;20031;-58
2023/08/05 06:17:26;;;;;;;6.85;3.05;;;16.40;99.90;;;;;;5112004;28;20027;-58
2023/08/05 06:19:52;;;;;;;6.75;2.85;;;16.60;99.90;;;;;;5108785;28;20063;-58
2023/08/05 06:22:18;;;;;;;3.58;2.40;;;16.80;99.90;;;;;;5105244;28;20042;-58
2023/08/05 06:24:44;;;;;;;5.55;2.50;;;17.00;99.90;;;;;;5112198;28;20110;-58
2023/08/05 06:27:09;;;;;;;6.60;2.60;;;17.10;99.90;;;;;;5111851;28;20114;-57
2023/08/05 06:29:35;;;;;;;3.92;2.50;;;17.20;99.90;;;;;;5114348;28;20119;-57
2023/08/05 06:32:00;;;;;;;8.75;2.50;;;17.20;99.90;;;;;;5116349;28;20114;-58
2023/08/05 06:34:26;;;;;;;4.70;2.80;;;17.20;99.90;;;;;;5116426;28;20044;-58
2023/08/05 06:36:52;;;;;;;6.72;2.60;;;17.30;99.90;;;;;;5116228;28;20466;-58
2023/08/05 06:39:17;;;;;;;6.63;2.17;;;17.30;99.90;;;;;;5116069;28;20043;-58
2023/08/05 06:41:43;;;;;;;6.05;2.60;;;17.20;99.90;;;;;;5115904;28;20048;-58
2023/08/05 06:44:08;;;;;;;4.80;2.80;;;17.30;99.90;;;;;;5116303;28;20047;-58
2023/08/05 06:46:34;;;;;;;7.13;2.80;;;17.50;99.90;;;;;;5116414;28;20058;-57
2023/08/05 06:49:00;;;;;;;5.07;2.47;;;17.70;99.90;;;;;;5115842;28;20040;-58
2023/08/05 06:51:27;;;;;;;8.02;2.60;;;17.90;99.90;;;;;;5116103;28;20031;-57
2023/08/05 06:53:52;;;;;;;6.20;2.55;;;17.90;99.90;;;;;;5115855;28;20032;-57
2023/08/05 06:56:18;;;;;;;5.78;2.40;;;18.10;99.90;;;;;;5114543;28;20534;-58
2023/08/05 06:58:44;;;;;;;5.88;2.72;;;18.30;99.90;;;;;;5115981;28;20039;-57
2023/08/05 07:01:09;;;;;;;5.93;2.58;;;18.60;99.90;;;;;;5115822;28;20032;-57
2023/08/05 07:03:35;;;;;;;6.38;2.55;;;18.90;99.90;;;;;;5115912;28;20089;-57
2023/08/05 07:06:01;;;;;;;2.42;1.90;;;18.80;99.90;;;;;;5115531;28;20497;-58
2023/08/05 07:08:27;;;;;;;4.60;2.08;;;18.70;99.90;;;;;;5115468;28;20063;-58
2023/08/05 07:10:57;;;;;;;3.60;2.00;;;18.60;99.90;;;;;;5115295;28;20046;-57
2023/08/05 07:13:23;;;;;;;4.35;2.08;;;18.60;99.90;;;;;;5115621;28;20035;-57
2023/08/05 07:15:49;;;;;;;3.65;1.85;;;18.40;99.90;;;;;;5115356;28;20040;-58
2023/08/05 07:18:14;;;;;;;4.90;1.92;;;18.50;99.90;;;;;;5115620;28;20031;-58
2023/08/05 07:20:40;;;;;;;6.07;2.10;;;18.30;99.90;;;;;;5115432;28;20035;-57
2023/08/05 07:23:06;;;;;;;4.60;1.98;;;18.30;99.90;;;;;;5115382;27;20036;-58
2023/08/05 07:25:32;;;;;;;3.88;2.10;;;18.30;99.90;;;;;;5115371;28;20390;-57
2023/08/05 07:27:57;;;;;;;6.07;2.08;;;18.30;99.90;;;;;;5113977;27;20047;-58
2023/08/05 07:30:23;;;;;;;3.25;1.80;;;18.20;99.90;;;;;;5115448;28;20035;-58
2023/08/05 07:32:49;;;;;;;7.45;2.10;;;18.20;99.90;;;;;;5115109;28;20469;-58
2023/08/05 07:35:14;;;;;;;4.43;2.10;;;18.20;99.90;;;;;;5115124;28;20032;-58
2023/08/05 07:37:43;;;;;;;5.68;2.72;;;18.20;99.90;;;;;;5115236;28;20039;-58
2023/08/05 07:40:12;;;;;;;5.20;1.90;;;18.20;99.90;;;;;;5114597;28;20046;-58
2023/08/05 07:42:45;;;;;;;4.43;1.85;;;18.20;99.90;;;;;;5113455;28;20055;-57
2023/08/05 07:45:16;;;;;;;2.90;1.92;;;18.10;99.90;;;;;;5114788;28;20045;-58
2023/08/05 07:47:43;;;;;;;4.15;2.55;;;18.20;99.90;;;;;;5114638;28;20489;-57
2023/08/05 07:50:16;;;;;;;5.10;1.92;;;18.20;99.90;;;;;;5114843;28;20088;-58
2023/08/05 07:52:42;;;;;;;5.50;2.10;;;18.10;99.90;;;;;;5114816;28;20474;-58
2023/08/05 07:55:08;;;;;;;3.63;1.92;;;18.20;99.90;;;;;;5114638;28;20078;-58
2023/08/05 07:57:37;;;;;;;5.60;2.00;;;18.20;99.90;;;;;;5114675;28;20071;-58
2023/08/05 08:00:04;;;;;;;5.03;1.90;;;18.30;99.90;;;;;;5114864;28;20031;-57
2023/08/05 08:02:30;;;;;;;5.53;2.45;;;18.40;99.90;;;;;;5115045;28;20377;-57
2023/08/05 08:04:57;;;;;;;3.15;1.75;;;18.40;99.90;;;;;;5114336;28;20120;-58
2023/08/05 08:07:23;;;;;;;2.63;1.80;;;18.50;99.90;;;;;;5114917;28;20039;-56
2023/08/05 08:09:49;;;;;;;3.13;1.83;;;18.60;99.90;;;;;;5113269;27;20054;-57
2023/08/05 08:12:15;;;;;;;4.72;1.75;;;18.80;99.90;;;;;;5114396;28;20110;-57
2023/08/05 08:14:40;;;;;;;5.82;1.48;;;18.90;99.90;;;;;;5114512;28;20031;-58
2023/08/05 08:17:06;;;;;;;6.80;1.88;;;19.00;99.90;;;;;;5114174;28;20031;-59
2023/08/05 08:19:31;;;;;;;3.92;1.80;;;19.00;99.90;;;;;;5114060;28;20481;-57
2023/08/05 08:21:57;;;;;;;5.47;1.90;;;19.00;99.90;;;;;;5114425;28;20036;-59
2023/08/05 08:24:23;;;;;;;4.75;1.83;;;19.00;99.90;;;;;;5112899;27;20055;-59
2023/08/05 08:26:48;;;;;;;6.95;2.20;;;18.90;99.90;;;;;;5113834;28;20101;-58
2023/08/05 08:29:14;;;;;;;9.05;2.38;;;18.90;99.90;;;;;;5114094;28;20027;-58
2023/08/05 08:31:39;;;;;;;3.15;2.05;;;18.90;99.90;;;;;;5113766;28;20370;-60
2023/08/05 08:34:05;;;;;;;4.72;2.03;;;19.00;99.90;;;;;;5112641;28;20035;-62
2023/08/05 08:36:31;;;;;;;3.42;2.15;;;19.40;99.90;;;;;;5113475;28;20036;-62
2023/08/05 08:38:56;;;;;;;7.30;2.17;;;19.60;99.90;;;;;;5113781;28;20042;-62
2023/08/05 08:41:23;;;;;;;5.65;1.73;;;19.90;99.90;;;;;;5102250;28;20095;-63
2023/08/05 08:43:50;;;;;;;5.18;1.65;;;20.30;99.90;;;;;;5098495;28;20047;-61
2023/08/05 08:46:18;;;;;;;3.92;1.80;;;20.60;99.90;;;;;;5100139;28;20061;-61
2023/08/05 08:48:44;;;;;;;4.57;1.70;;;21.00;99.90;;;;;;5101960;28;20047;-61
2023/08/05 08:51:11;;;;;;;6.70;1.80;;;21.00;99.90;;;;;;5113253;28;20039;-61
2023/08/05 08:53:36;;;;;;;3.72;1.77;;;21.90;99.90;;;;;;5112786;28;20046;-62
2023/08/05 08:56:02;;;;;;;3.30;1.67;;;22.90;99.90;;;;;;5113261;28;20028;-60
2023/08/05 08:58:28;;;;;;;3.35;1.92;;;23.30;99.90;;;;;;5113312;28;20092;-60
2023/08/05 09:00:54;;;;;;;3.38;1.80;;;23.50;99.90;;;;;;5113005;28;20447;-61
2023/08/05 09:03:24;;;;;;;3.42;1.67;;;23.20;99.90;;;;;;5111838;28;20142;-62
2023/08/05 09:05:56;;;;;;;4.32;1.92;;;22.90;99.90;;;;;;5113145;28;20035;-62
2023/08/05 09:08:22;;;;;;;3.90;1.73;;;22.80;99.90;;;;;;5113161;28;20031;-61
2023/08/05 09:10:47;;;;;;;4.10;1.70;;;22.30;99.90;;;;;;5111930;28;20058;-62
2023/08/05 09:13:17;;;;;;;2.60;1.70;;;22.30;99.90;;;;;;5112818;28;20031;-61
2023/08/05 09:15:43;;;;;;;5.13;1.60;;;22.20;99.90;;;;;;5112761;28;20110;-61
2023/08/05 09:18:09;;;;;;;4.03;1.50;;;22.10;99.90;;;;;;5112593;28;20046;-60
2023/08/05 09:20:36;;;;;;;2.70;1.42;;;23.00;99.90;;;;;;5113108;28;20044;-60
2023/08/05 09:23:08;;;;;;;3.45;1.50;;;23.00;99.90;;;;;;5112809;28;20081;-62
2023/08/05 09:25:45;;;;;;;2.42;1.65;;;22.70;99.90;;;;;;5112665;28;20050;-62
2023/08/05 09:28:11;;;;;;;2.38;1.42;;;22.70;99.90;;;;;;5112497;28;20047;-62
2023/08/05 09:30:37;;;;;;;2.72;1.55;;;23.50;99.90;;;;;;5112725;28;20046;-62
2023/08/05 09:33:03;;;;;;;1.95;1.40;;;23.90;99.90;;;;;;5111252;28;20043;-61
2023/08/05 09:35:29;;;;;;;1.92;1.30;;;24.20;99.90;;;;;;5112626;28;20051;-62
2023/08/05 09:37:55;;;;;;;5.68;1.35;;;25.10;99.90;;;;;;5112449;28;20035;-61
2023/08/05 09:40:25;;;;;;;2.75;1.30;;;23.90;99.90;;;;;;5112360;27;20047;-61
2023/08/05 09:42:53;;;;;;;1.10;1.00;;;23.80;99.90;;;;;;5110396;28;20063;-62
2023/08/05 09:45:21;;;;;;;2.55;1.38;;;23.60;99.90;;;;;;5112405;28;20032;-62
2023/08/05 09:47:48;;;;;;;4.43;1.33;;;24.20;99.90;;;;;;5112527;28;20110;-61
2023/08/05 09:50:15;;;;;;;1.17;0.95;;;25.10;99.90;;;;;;5112308;28;20054;-61
2023/08/05 09:52:42;;;;;;;3.40;1.10;;;25.90;99.90;;;;;;5111985;28;20032;-60
2023/08/05 09:55:12;;;;;;;3.22;1.25;;;26.30;99.90;;;;;;5111000;28;20157;-62
2023/08/05 09:57:38;;;;;;;4.65;1.75;;;26.40;99.90;;;;;;5112234;28;20023;-62
2023/08/05 10:00:08;;;;;;;2.30;1.13;;;25.90;99.90;;;;;;5112159;28;20074;-62
2023/08/05 10:02:41;;;;;;;7.70;1.55;;;25.40;99.90;;;;;;5111112;28;20468;-62
2023/08/05 10:05:09;;;;;;;3.72;1.23;;;25.10;99.90;;;;;;5111956;28;20390;-62
2023/08/05 10:07:40;;;;;;;1.10;1.00;;;25.70;99.90;;;;;;5111891;28;20039;-62
2023/08/05 10:10:12;;;;;;;3.08;1.20;;;25.80;99.90;;;;;;5112135;28;20052;-62
2023/08/05 10:12:50;;;;;;;1.83;1.13;;;26.00;99.90;;;;;;5107687;28;20544;-61
2023/08/05 10:15:26;;;;;;;1.25;1.02;;;25.50;99.90;;;;;;5103949;28;20540;-61
2023/08/05 10:17:52;;;;;;;1.88;1.13;;;25.60;99.90;;;;;;5094605;28;20048;-62
2023/08/05 10:20:18;;;;;;;3.03;1.35;;;25.20;99.90;;;;;;5107193;28;20044;-61
2023/08/05 10:23:05;;;;;;;1.98;1.05;;;24.60;99.90;;;;;;5112053;28;20043;-63
2023/08/05 10:25:46;;;;;;;2.03;1.20;;;24.10;99.90;;;;;;5111939;28;20562;-61
2023/08/05 10:28:24;;;;;;;2.97;1.30;;;25.10;99.90;;;;;;5111938;28;20031;-61
2023/08/05 10:30:51;;;;;;;2.38;1.20;;;25.40;99.90;;;;;;5110318;28;20428;-62
2023/08/05 10:33:18;;;;;;;2.72;1.00;;;25.50;99.90;;;;;;5112076;28;20031;-61
2023/08/05 10:35:44;;;;;;;4.38;1.13;;;24.50;99.90;;;;;;5111905;28;20071;-61
2023/08/05 10:38:16;;;;;;;1.98;1.17;;;24.40;99.90;;;;;;5111799;28;20115;-61
2023/08/05 10:41:02;;;;;;;3.35;1.00;;;24.50;99.90;;;;;;5111551;28;20044;-61
2023/08/05 10:43:31;;;;;;;3.15;1.20;;;24.30;99.90;;;;;;5111686;28;20055;-62
2023/08/05 10:46:00;;;;;;;;;;;24.40;99.90;;;;;;5112049;28;20044;-61
2023/08/05 10:48:36;;;;;;;3.22;1.17;;;24.20;99.90;;;;;;5111983;28;19926;-61
2023/08/05 10:51:18;;;;;;;3.53;1.67;;;23.80;99.90;;;;;;5111437;28;20074;-62
2023/08/05 10:54:05;;;;;;;6.97;1.60;;;23.40;99.90;;;;;;5110678;28;20389;-61
2023/08/05 10:56:32;;;;;;;5.10;1.45;;;22.90;99.90;;;;;;5111373;28;20044;-60
2023/08/05 10:59:02;;;;;;;2.73;1.40;;;23.00;99.90;;;;;;5111743;28;20044;-60
2023/08/05 11:01:51;;;;;;;1.90;1.30;;;23.80;99.90;;;;;;5084278;28;20039;-61
2023/08/05 11:04:30;;;;;;;2.73;1.37;;;23.80;99.90;;;;;;5088692;28;20551;-61
2023/08/05 11:06:59;;;;;;;2.33;1.10;;;24.60;99.90;;;;;;5089026;28;20052;-62
2023/08/05 11:09:26;;;;;;;4.45;1.98;;;24.60;99.90;;;;;;5089134;28;20052;-62
2023/08/05 11:11:52;;;;;;;2.13;1.48;;;24.50;99.90;;;;;;5089140;28;20109;-61
2023/08/05 11:14:18;;;;;;;7.10;1.50;;;24.70;99.90;;;;;;5083085;28;20087;-62
2023/08/05 11:16:45;;;;;;;4.90;1.65;;;24.00;99.90;;;;;;5091404;28;20456;-59
2023/08/05 11:19:11;;;;;;;11.50;1.80;;;23.70;99.90;;;;;;5088365;28;20036;-61
2023/08/05 11:21:38;;;;;;;3.35;1.40;;;23.50;99.90;;;;;;5091362;28;20503;-60
2023/08/05 11:24:04;;;;;;;3.30;1.67;;;23.20;99.90;;;;;;5089462;28;20044;-61
2023/08/05 11:26:30;;;;;;;6.15;1.55;;;23.20;99.90;;;;;;5089390;28;20073;-60
2023/08/05 11:29:00;;;;;;;2.40;1.70;;;23.00;99.90;;;;;;5080243;28;20131;-60
2023/08/05 11:31:27;;;;;;;1.42;1.25;;;23.20;99.90;;;;;;5080361;28;20047;-61
2023/08/05 11:33:53;;;;;;;2.17;1.40;;;22.80;99.90;;;;;;5081128;28;20039;-61
2023/08/05 11:36:26;;;;;;;1.70;1.42;;;22.60;99.90;;;;;;5078858;28;20029;-60
2023/08/05 11:38:57;;;;;;;3.25;1.40;;;22.70;99.90;;;;;;5081707;28;20074;-60
2023/08/05 11:41:23;;;;;;;2.08;1.10;;;22.50;99.90;;;;;;5097378;28;20119;-61
2023/08/05 11:43:49;;;;;;;3.90;1.60;;;22.20;99.90;;;;;;5105630;28;20108;-61
2023/08/05 11:46:29;;;;;;;6.03;1.50;;;22.10;99.90;;;;;;5105841;28;20119;-60
2023/08/05 11:49:11;;;;;;;4.03;1.70;;;22.20;99.90;;;;;;5106584;28;20098;-61
2023/08/05 11:51:47;;;;;;;4.65;1.95;;;22.10;99.90;;;;;;5110719;28;20076;-60
2023/08/05 11:54:22;;;;;;;4.60;1.88;;;22.00;99.90;;;;;;5101999;28;20062;-61
2023/08/05 11:56:48;;;;;;;3.17;1.95;;;21.90;99.90;;;;;;5115068;28;20428;-61
2023/08/05 11:59:13;;;;;;;3.10;1.70;;;21.90;99.90;;;;;;5105415;28;20032;-61
2023/08/05 12:01:42;;;;;;;4.80;2.10;;;21.70;99.90;;;;;;5114869;28;20043;-60
2023/08/05 12:04:08;;;;;;;3.38;1.88;;;21.60;99.90;;;;;;5105001;28;20475;-60
2023/08/05 12:06:34;;;;;;;3.42;1.63;;;21.50;99.90;;;;;;5114690;28;20183;-60
2023/08/05 12:09:00;;;;;;;4.35;1.80;;;21.40;99.90;;;;;;5107422;28;20035;-60
2023/08/05 12:11:26;;;;;;;4.72;1.70;;;21.20;99.90;;;;;;5114427;28;20043;-60
2023/08/05 12:13:52;;;;;;;2.53;1.45;;;21.10;99.90;;;;;;5114955;28;20039;-60
2023/08/05 12:16:18;;;;;;;3.00;1.83;;;21.00;99.90;;;;;;5114570;28;20126;-61
2023/08/05 12:18:44;;;;;;;2.80;1.90;;;21.00;99.90;;;;;;5113435;28;20589;-60
2023/08/05 12:21:11;;;;;;;5.72;2.38;;;20.90;99.90;;;;;;5103531;28;20582;-60
2023/08/05 12:23:40;;;;;;;7.25;2.03;;;20.90;99.90;;;;;;5114823;27;20047;-59
2023/08/05 12:26:07;;;;;;;4.63;1.70;;;20.90;99.90;;;;;;5103199;28;20043;-60
2023/08/05 12:28:32;;;;;;;4.95;1.92;;;20.90;99.90;;;;;;5114333;27;20040;-60
2023/08/05 12:30:58;;;;;;;2.80;1.83;;;20.80;99.90;;;;;;5107151;28;20055;-59
2023/08/05 12:33:24;;;;;;;3.03;2.22;;;20.70;99.90;;;;;;5114028;28;20035;-60
2023/08/05 12:35:49;;;;;;;6.53;2.35;;;20.70;99.90;;;;;;5114217;28;20378;-61
2023/08/05 12:38:15;;;;;;;3.85;1.90;;;20.70;99.90;;;;;;5114453;28;20040;-61
2023/08/05 12:40:41;;;;;;;2.92;2.22;;;20.70;99.90;;;;;;5114051;28;20548;-61
2023/08/05 12:43:06;;;;;;;5.10;2.50;;;20.60;99.90;;;;;;5114320;28;20404;-60
2023/08/05 12:45:32;;;;;;;6.35;2.63;;;20.50;99.90;;;;;;5114116;28;20402;-61